sensor_id;sensor_type;location;lat;lon;timestamp;temperature;humidity
24772;DHT22;12870;52.274;9.754;2023-06-14T00:00:39;17.00;96.70
24772;DHT22;12870;52.274;9.754;2023-06-14T00:03:07;16.90;97.50
24772;DHT22;12870;52.274;9.754;2023-06-14T00:05:35;16.80;98.40
24772;DHT22;12870;52.274;9.754;2023-06-14T00:08:06;16.70;99.20
24772;DHT22;12870;52.274;9.754;2023-06-14T00:10:38;16.60;99.90
24772;DHT22;12870;52.274;9.754;2023-06-14T00:13:07;16.60;99.90
24772;DHT22;12870;52.274;9.754;2023-06-14T00:15:33;16.50;99.90
24772;DHT22;12870;52.274;9.754;2023-06-14T00:17:59;16.50;99.90
24772;DHT22;12870;52.274;9.754;2023-06-14T00:20:29;16.50;99.90
24772;DHT22;12870;52.274;9.754;2023-06-14T00:22:56;16.40;99.90
24772;DHT22;12870;52.274;9.754;2023-06-14T00:25:23;16.40;99.90
24772;DHT22;12870;52.274;9.754;2023-06-14T00:27:49;16.40;99.90
24772;DHT22;12870;52.274;9.754;2023-06-14T00:30:15;16.40;99.90
24772;DHT22;12870;52.274;9.754;2023-06-14T00:32:40;16.40;99.90
24772;DHT22;12870;52.274;9.754;2023-06-14T00:35:08;16.30;99.90
24772;DHT22;12870;52.274;9.754;2023-06-14T00:37:35;16.30;99.90
24772;DHT22;12870;52.274;9.754;2023-06-14T00:40:01;16.20;99.90
24772;DHT22;12870;52.274;9.754;2023-06-14T00:42:27;16.20;99.90
24772;DHT22;12870;52.274;9.754;2023-06-14T00:44:53;16.10;99.90
24772;DHT22;12870;52.274;9.754;2023-06-14T00:47:19;16.10;99.90
24772;DHT22;12870;52.274;9.754;2023-06-14T00:49:55;16.10;99.90
24772;DHT22;12870;52.274;9.754;2023-06-14T00:52:22;16.10;99.90
24772;DHT22;12870;52.274;9.754;2023-06-14T00:54:49;16.00;99.90
24772;DHT22;12870;52.274;9.754;2023-06-14T00:57:15;16.00;99.90
24772;DHT22;12870;52.274;9.754;2023-06-14T00:59:47;16.00;99.90
24772;DHT22;12870;52.274;9.754;2023-06-14T01:02:14;16.00;99.90
24772;DHT22;12870;52.274;9.754;2023-06-14T01:04:41;16.00;99.90
24772;DHT22;12870;52.274;9.754;2023-06-14T01:10:04;15.90;99.90
24772;DHT22;12870;52.274;9.754;2023-06-14T01:15:24;15.80;99.90
24772;DHT22;12870;52.274;9.754;2023-06-14T01:17:50;15.80;99.90
24772;DHT22;12870;52.274;9.754;2023-06-14T01:20:18;15.70;99.90
24772;DHT22;12870;52.274;9.754;2023-06-14T01:22:52;15.70;99.90
24772;DHT22;12870;52.274;9.754;2023-06-14T01:25:22;15.70;99.90
24772;DHT22;12870;52.274;9.754;2023-06-14T01:28:15;15.60;99.90
24772;DHT22;12870;52.274;9.754;2023-06-14T01:30:44;15.70;99.90
24772;DHT22;12870;52.274;9.754;2023-06-14T01:33:15;15.60;99.90
24772;DHT22;12870;52.274;9.754;2023-06-14T01:35:44;15.60;99.90
24772;DHT22;12870;52.274;9.754;2023-06-14T01:38:10;15.60;99.90
24772;DHT22;12870;52.274;9.754;2023-06-14T01:40:36;15.50;99.90
24772;DHT22;12870;52.274;9.754;2023-06-14T01:43:03;15.50;99.90
24772;DHT22;12870;52.274;9.754;2023-06-14T01:45:30;15.40;99.90
24772;DHT22;12870;52.274;9.754;2023-06-14T01:47:56;15.40;99.90
24772;DHT22;12870;52.274;9.754;2023-06-14T01:50:22;15.40;99.90
24772;DHT22;12870;52.274;9.754;2023-06-14T01:52:48;15.40;99.90
24772;DHT22;12870;52.274;9.754;2023-06-14T01:55:13;15.30;99.90
24772;DHT22;12870;52.274;9.754;2023-06-14T01:57:39;15.30;99.90
24772;DHT22;12870;52.274;9.754;2023-06-14T02:00:05;15.20;99.90
24772;DHT22;12870;52.274;9.754;2023-06-14T02:02:38;15.20;99.90
24772;DHT22;12870;52.274;9.754;2023-06-14T02:05:04;15.10;99.90
24772;DHT22;12870;52.274;9.754;2023-06-14T02:07:30;15.10;99.90
24772;DHT22;12870;52.274;9.754;2023-06-14T02:09:55;15.00;99.90
24772;DHT22;12870;52.274;9.754;2023-06-14T02:12:21;15.00;99.90
24772;DHT22;12870;52.274;9.754;2023-06-14T02:14:47;14.90;99.90
24772;DHT22;12870;52.274;9.754;2023-06-14T02:17:14;14.90;99.90
24772;DHT22;12870;52.274;9.754;2023-06-14T02:19:40;14.80;99.90
24772;DHT22;12870;52.274;9.754;2023-06-14T02:22:06;14.80;99.90
24772;DHT22;12870;52.274;9.754;2023-06-14T02:24:32;14.80;99.90
24772;DHT22;12870;52.274;9.754;2023-06-14T02:26:57;14.70;99.90
24772;DHT22;12870;52.274;9.754;2023-06-14T02:29:23;14.70;99.90
24772;DHT22;12870;52.274;9.754;2023-06-14T02:31:49;14.70;99.90
24772;DHT22;12870;52.274;9.754;2023-06-14T02:34:15;14.60;99.90
24772;DHT22;12870;52.274;9.754;2023-06-14T02:36:43;14.60;99.90
24772;DHT22;12870;52.274;9.754;2023-06-14T02:39:09;14.50;99.90
24772;DHT22;12870;52.274;9.754;2023-06-14T02:41:35;14.50;99.90
24772;DHT22;12870;52.274;9.754;2023-06-14T02:44:02;14.40;99.90
24772;DHT22;12870;52.274;9.754;2023-06-14T02:46:27;14.40;99.90
24772;DHT22;12870;52.274;9.754;2023-06-14T02:48:53;14.40;99.90
24772;DHT22;12870;52.274;9.754;2023-06-14T02:51:19;14.40;99.90
24772;DHT22;12870;52.274;9.754;2023-06-14T02:53:44;14.30;99.90
24772;DHT22;12870;52.274;9.754;2023-06-14T02:56:10;14.30;99.90
24772;DHT22;12870;52.274;9.754;2023-06-14T02:58:37;14.20;99.90
24772;DHT22;12870;52.274;9.754;2023-06-14T03:01:07;14.20;99.90
24772;DHT22;12870;52.274;9.754;2023-06-14T03:03:33;14.20;99.90
24772;DHT22;12870;52.274;9.754;2023-06-14T03:05:59;14.10;99.90
24772;DHT22;12870;52.274;9.754;2023-06-14T03:08:30;14.10;99.90
24772;DHT22;12870;52.274;9.754;2023-06-14T03:10:57;14.10;99.90
24772;DHT22;12870;52.274;9.754;2023-06-14T03:13:23;14.10;99.90
24772;DHT22;12870;52.274;9.754;2023-06-14T03:15:49;14.00;99.90
24772;DHT22;12870;52.274;9.754;2023-06-14T03:18:17;14.00;99.90
24772;DHT22;12870;52.274;9.754;2023-06-14T03:20:43;14.00;99.90
24772;DHT22;12870;52.274;9.754;2023-06-14T03:23:11;14.00;99.90
24772;DHT22;12870;52.274;9.754;2023-06-14T03:25:37;14.00;99.90
24772;DHT22;12870;52.274;9.754;2023-06-14T03:28:04;14.00;99.90
24772;DHT22;12870;52.274;9.754;2023-06-14T03:30:31;14.00;99.90
24772;DHT22;12870;52.274;9.754;2023-06-14T03:32:57;14.00;99.90
24772;DHT22;12870;52.274;9.754;2023-06-14T03:35:28;14.00;99.90
24772;DHT22;12870;52.274;9.754;2023-06-14T03:37:54;13.90;99.90
24772;DHT22;12870;52.274;9.754;2023-06-14T03:40:21;13.90;99.90
24772;DHT22;12870;52.274;9.754;2023-06-14T03:42:47;14.00;99.90
24772;DHT22;12870;52.274;9.754;2023-06-14T03:45:12;14.00;99.90
24772;DHT22;12870;52.274;9.754;2023-06-14T03:47:38;14.00;99.90
24772;DHT22;12870;52.274;9.754;2023-06-14T03:50:04;14.00;99.90
24772;DHT22;12870;52.274;9.754;2023-06-14T03:52:31;14.00;99.90
24772;DHT22;12870;52.274;9.754;2023-06-14T03:54:56;14.10;99.90
24772;DHT22;12870;52.274;9.754;2023-06-14T03:57:23;14.10;99.90
24772;DHT22;12870;52.274;9.754;2023-06-14T03:59:49;14.20;99.90
24772;DHT22;12870;52.274;9.754;2023-06-14T04:02:15;14.20;99.90
24772;DHT22;12870;52.274;9.754;2023-06-14T04:04:42;14.30;99.90
24772;DHT22;12870;52.274;9.754;2023-06-14T04:07:11;14.30;99.90
24772;DHT22;12870;52.274;9.754;2023-06-14T04:09:38;14.30;99.90
24772;DHT22;12870;52.274;9.754;2023-06-14T04:12:04;14.40;99.90
24772;DHT22;12870;52.274;9.754;2023-06-14T04:14:30;14.40;99.90
24772;DHT22;12870;52.274;9.754;2023-06-14T04:16:58;14.50;99.90
24772;DHT22;12870;52.274;9.754;2023-06-14T04:19:24;14.50;99.90
24772;DHT22;12870;52.274;9.754;2023-06-14T04:21:50;14.60;99.90
24772;DHT22;12870;52.274;9.754;2023-06-14T04:24:15;14.60;99.90
24772;DHT22;12870;52.274;9.754;2023-06-14T04:26:43;14.60;99.90
24772;DHT22;12870;52.274;9.754;2023-06-14T04:29:10;14.70;99.90
24772;DHT22;12870;52.274;9.754;2023-06-14T04:31:40;14.70;99.90
24772;DHT22;12870;52.274;9.754;2023-06-14T04:34:05;14.80;99.90
24772;DHT22;12870;52.274;9.754;2023-06-14T04:36:35;14.90;99.90
24772;DHT22;12870;52.274;9.754;2023-06-14T04:39:03;15.00;99.90
24772;DHT22;12870;52.274;9.754;2023-06-14T04:41:29;15.00;99.90
24772;DHT22;12870;52.274;9.754;2023-06-14T04:43:59;15.00;99.90
24772;DHT22;12870;52.274;9.754;2023-06-14T04:46:30;15.00;99.90
24772;DHT22;12870;52.274;9.754;2023-06-14T04:48:57;15.10;99.90
24772;DHT22;12870;52.274;9.754;2023-06-14T04:51:27;15.10;99.90
24772;DHT22;12870;52.274;9.754;2023-06-14T04:53:58;15.20;99.90
24772;DHT22;12870;52.274;9.754;2023-06-14T04:56:27;15.30;99.90
24772;DHT22;12870;52.274;9.754;2023-06-14T04:58:52;15.30;99.90
24772;DHT22;12870;52.274;9.754;2023-06-14T05:01:22;15.30;99.90
24772;DHT22;12870;52.274;9.754;2023-06-14T05:03:49;15.40;99.90
24772;DHT22;12870;52.274;9.754;2023-06-14T05:06:15;15.40;99.90
24772;DHT22;12870;52.274;9.754;2023-06-14T05:08:42;15.50;99.90
24772;DHT22;12870;52.274;9.754;2023-06-14T05:11:08;15.60;99.90
24772;DHT22;12870;52.274;9.754;2023-06-14T05:13:34;15.60;99.90
24772;DHT22;12870;52.274;9.754;2023-06-14T05:15:59;15.70;99.90
24772;DHT22;12870;52.274;9.754;2023-06-14T05:18:26;15.80;99.90
24772;DHT22;12870;52.274;9.754;2023-06-14T05:20:51;15.80;99.90
24772;DHT22;12870;52.274;9.754;2023-06-14T05:23:17;15.80;99.90
24772;DHT22;12870;52.274;9.754;2023-06-14T05:25:44;15.90;99.90
24772;DHT22;12870;52.274;9.754;2023-06-14T05:28:09;15.90;99.90
24772;DHT22;12870;52.274;9.754;2023-06-14T05:30:37;16.00;99.90
24772;DHT22;12870;52.274;9.754;2023-06-14T05:33:03;16.00;99.90
24772;DHT22;12870;52.274;9.754;2023-06-14T05:35:30;16.10;99.90
24772;DHT22;12870;52.274;9.754;2023-06-14T05:37:56;16.20;99.90
24772;DHT22;12870;52.274;9.754;2023-06-14T05:40:21;16.20;99.90
24772;DHT22;12870;52.274;9.754;2023-06-14T05:42:47;16.30;99.90
24772;DHT22;12870;52.274;9.754;2023-06-14T05:45:13;16.30;99.90
24772;DHT22;12870;52.274;9.754;2023-06-14T05:47:41;16.30;99.90
24772;DHT22;12870;52.274;9.754;2023-06-14T05:50:08;16.40;99.90
24772;DHT22;12870;52.274;9.754;2023-06-14T05:52:34;16.50;99.90
24772;DHT22;12870;52.274;9.754;2023-06-14T05:55:01;16.60;99.90
24772;DHT22;12870;52.274;9.754;2023-06-14T05:57:27;16.60;99.90
24772;DHT22;12870;52.274;9.754;2023-06-14T05:59:52;16.70;99.90
24772;DHT22;12870;52.274;9.754;2023-06-14T06:02:18;16.70;99.90
24772;DHT22;12870;52.274;9.754;2023-06-14T06:04:44;16.80;99.90
24772;DHT22;12870;52.274;9.754;2023-06-14T06:07:11;16.90;99.90
24772;DHT22;12870;52.274;9.754;2023-06-14T06:09:37;17.00;99.90
24772;DHT22;12870;52.274;9.754;2023-06-14T06:12:02;17.10;99.90
24772;DHT22;12870;52.274;9.754;2023-06-14T06:14:29;17.10;99.90
24772;DHT22;12870;52.274;9.754;2023-06-14T06:16:54;17.10;99.90
24772;DHT22;12870;52.274;9.754;2023-06-14T06:19:20;17.20;99.90
24772;DHT22;12870;52.274;9.754;2023-06-14T06:21:46;17.20;99.90
24772;DHT22;12870;52.274;9.754;2023-06-14T06:24:11;17.30;99.90
24772;DHT22;12870;52.274;9.754;2023-06-14T06:26:37;17.30;99.90
24772;DHT22;12870;52.274;9.754;2023-06-14T06:29:04;17.30;99.90
24772;DHT22;12870;52.274;9.754;2023-06-14T06:31:30;17.40;99.90
24772;DHT22;12870;52.274;9.754;2023-06-14T06:33:55;17.50;99.90
24772;DHT22;12870;52.274;9.754;2023-06-14T06:36:21;17.50;99.90
24772;DHT22;12870;52.274;9.754;2023-06-14T06:38:47;17.60;99.90
24772;DHT22;12870;52.274;9.754;2023-06-14T06:41:13;17.70;99.90
24772;DHT22;12870;52.274;9.754;2023-06-14T06:43:39;17.70;99.90
24772;DHT22;12870;52.274;9.754;2023-06-14T06:46:04;17.70;99.90
24772;DHT22;12870;52.274;9.754;2023-06-14T06:48:30;17.80;99.90
24772;DHT22;12870;52.274;9.754;2023-06-14T06:50:56;17.90;99.90
24772;DHT22;12870;52.274;9.754;2023-06-14T06:53:22;17.90;99.90
24772;DHT22;12870;52.274;9.754;2023-06-14T06:55:48;18.00;99.90
24772;DHT22;12870;52.274;9.754;2023-06-14T06:58:14;18.10;99.90
24772;DHT22;12870;52.274;9.754;2023-06-14T07:00:40;18.00;99.90
24772;DHT22;12870;52.274;9.754;2023-06-14T07:03:06;18.00;99.90
24772;DHT22;12870;52.274;9.754;2023-06-14T07:05:32;18.10;99.90
24772;DHT22;12870;52.274;9.754;2023-06-14T07:07:58;18.20;99.90
24772;DHT22;12870;52.274;9.754;2023-06-14T07:10:24;18.30;99.90
24772;DHT22;12870;52.274;9.754;2023-06-14T07:12:50;18.40;99.90
24772;DHT22;12870;52.274;9.754;2023-06-14T07:15:16;18.40;99.90
24772;DHT22;12870;52.274;9.754;2023-06-14T07:17:42;18.40;99.90
24772;DHT22;12870;52.274;9.754;2023-06-14T07:20:08;18.50;99.90
24772;DHT22;12870;52.274;9.754;2023-06-14T07:22:41;18.60;99.90
24772;DHT22;12870;52.274;9.754;2023-06-14T07:25:11;18.80;99.90
24772;DHT22;12870;52.274;9.754;2023-06-14T07:27:43;18.90;99.90
24772;DHT22;12870;52.274;9.754;2023-06-14T07:30:09;19.00;99.90
24772;DHT22;12870;52.274;9.754;2023-06-14T07:32:36;19.00;99.90
24772;DHT22;12870;52.274;9.754;2023-06-14T07:35:02;19.00;99.90
24772;DHT22;12870;52.274;9.754;2023-06-14T07:37:28;19.00;99.90
24772;DHT22;12870;52.274;9.754;2023-06-14T07:39:54;19.10;99.90
24772;DHT22;12870;52.274;9.754;2023-06-14T07:42:21;19.20;99.90
24772;DHT22;12870;52.274;9.754;2023-06-14T07:44:46;19.30;99.90
24772;DHT22;12870;52.274;9.754;2023-06-14T07:47:12;19.40;99.90
24772;DHT22;12870;52.274;9.754;2023-06-14T07:49:38;19.60;99.90
24772;DHT22;12870;52.274;9.754;2023-06-14T07:52:04;19.70;99.90
24772;DHT22;12870;52.274;9.754;2023-06-14T07:54:30;19.80;99.90
24772;DHT22;12870;52.274;9.754;2023-06-14T07:56:58;19.80;99.90
24772;DHT22;12870;52.274;9.754;2023-06-14T07:59:26;20.00;99.90
24772;DHT22;12870;52.274;9.754;2023-06-14T08:01:51;20.10;99.90
24772;DHT22;12870;52.274;9.754;2023-06-14T08:04:17;20.10;99.90
24772;DHT22;12870;52.274;9.754;2023-06-14T08:06:43;20.20;99.90
24772;DHT22;12870;52.274;9.754;2023-06-14T08:09:11;20.20;99.90
24772;DHT22;12870;52.274;9.754;2023-06-14T08:11:38;20.30;99.90
24772;DHT22;12870;52.274;9.754;2023-06-14T08:14:03;20.30;99.90
24772;DHT22;12870;52.274;9.754;2023-06-14T08:16:29;20.20;99.90
24772;DHT22;12870;52.274;9.754;2023-06-14T08:18:55;20.40;99.90
24772;DHT22;12870;52.274;9.754;2023-06-14T08:21:21;20.40;99.90
24772;DHT22;12870;52.274;9.754;2023-06-14T08:23:47;20.50;99.90
24772;DHT22;12870;52.274;9.754;2023-06-14T08:26:13;20.60;99.90
24772;DHT22;12870;52.274;9.754;2023-06-14T08:28:38;20.70;99.90
24772;DHT22;12870;52.274;9.754;2023-06-14T08:31:04;20.70;99.90
24772;DHT22;12870;52.274;9.754;2023-06-14T08:33:30;20.80;99.90
24772;DHT22;12870;52.274;9.754;2023-06-14T08:35:59;21.00;99.90
24772;DHT22;12870;52.274;9.754;2023-06-14T08:38:25;21.00;99.90
24772;DHT22;12870;52.274;9.754;2023-06-14T08:40:51;21.10;99.90
24772;DHT22;12870;52.274;9.754;2023-06-14T08:43:18;21.20;99.90
24772;DHT22;12870;52.274;9.754;2023-06-14T08:45:46;21.30;99.90
24772;DHT22;12870;52.274;9.754;2023-06-14T08:48:13;21.20;99.90
24772;DHT22;12870;52.274;9.754;2023-06-14T08:50:43;21.40;99.90
24772;DHT22;12870;52.274;9.754;2023-06-14T08:53:13;21.40;99.90
24772;DHT22;12870;52.274;9.754;2023-06-14T08:55:45;21.40;99.90
24772;DHT22;12870;52.274;9.754;2023-06-14T08:58:13;21.70;99.90
24772;DHT22;12870;52.274;9.754;2023-06-14T09:00:40;21.80;99.90
24772;DHT22;12870;52.274;9.754;2023-06-14T09:03:07;21.90;99.90
24772;DHT22;12870;52.274;9.754;2023-06-14T09:05:38;22.00;99.90
24772;DHT22;12870;52.274;9.754;2023-06-14T09:08:04;22.10;99.90
24772;DHT22;12870;52.274;9.754;2023-06-14T09:10:31;22.30;99.90
24772;DHT22;12870;52.274;9.754;2023-06-14T09:13:03;22.50;99.90
24772;DHT22;12870;52.274;9.754;2023-06-14T09:15:29;22.50;99.90
24772;DHT22;12870;52.274;9.754;2023-06-14T09:17:55;22.80;99.90
24772;DHT22;12870;52.274;9.754;2023-06-14T09:20:21;22.90;99.90
24772;DHT22;12870;52.274;9.754;2023-06-14T09:22:49;23.10;99.90
24772;DHT22;12870;52.274;9.754;2023-06-14T09:25:14;23.20;99.90
24772;DHT22;12870;52.274;9.754;2023-06-14T09:27:41;23.40;99.30
24772;DHT22;12870;52.274;9.754;2023-06-14T09:30:09;23.50;98.10
24772;DHT22;12870;52.274;9.754;2023-06-14T09:32:41;23.40;98.30
24772;DHT22;12870;52.274;9.754;2023-06-14T09:35:08;23.60;98.00
24772;DHT22;12870;52.274;9.754;2023-06-14T09:37:34;23.90;98.20
24772;DHT22;12870;52.274;9.754;2023-06-14T09:40:01;23.80;97.20
24772;DHT22;12870;52.274;9.754;2023-06-14T09:42:26;24.00;97.10
24772;DHT22;12870;52.274;9.754;2023-06-14T09:44:55;24.00;97.00
24772;DHT22;12870;52.274;9.754;2023-06-14T09:47:23;24.10;96.20
24772;DHT22;12870;52.274;9.754;2023-06-14T09:49:50;24.30;96.50
24772;DHT22;12870;52.274;9.754;2023-06-14T09:52:19;24.60;95.60
24772;DHT22;12870;52.274;9.754;2023-06-14T09:54:46;24.80;95.00
24772;DHT22;12870;52.274;9.754;2023-06-14T09:57:20;24.70;95.00
24772;DHT22;12870;52.274;9.754;2023-06-14T09:59:47;24.90;94.00
24772;DHT22;12870;52.274;9.754;2023-06-14T10:02:25;24.70;92.70
24772;DHT22;12870;52.274;9.754;2023-06-14T10:05:09;24.60;92.90
24772;DHT22;12870;52.274;9.754;2023-06-14T10:07:42;24.70;93.50
24772;DHT22;12870;52.274;9.754;2023-06-14T10:10:09;24.90;93.80
24772;DHT22;12870;52.274;9.754;2023-06-14T10:12:36;25.20;93.60
24772;DHT22;12870;52.274;9.754;2023-06-14T10:15:02;25.40;93.00
24772;DHT22;12870;52.274;9.754;2023-06-14T10:17:50;25.60;93.00
24772;DHT22;12870;52.274;9.754;2023-06-14T10:20:37;25.80;91.60
24772;DHT22;12870;52.274;9.754;2023-06-14T10:23:13;26.20;93.60
24772;DHT22;12870;52.274;9.754;2023-06-14T10:25:43;26.30;92.50
24772;DHT22;12870;52.274;9.754;2023-06-14T10:31:07;26.50;89.50
24772;DHT22;12870;52.274;9.754;2023-06-14T10:33:34;26.50;90.30
24772;DHT22;12870;52.274;9.754;2023-06-14T10:38:36;26.90;91.50
24772;DHT22;12870;52.274;9.754;2023-06-14T10:41:03;27.10;85.60
24772;DHT22;12870;52.274;9.754;2023-06-14T10:43:30;26.80;82.70
24772;DHT22;12870;52.274;9.754;2023-06-14T10:46:15;26.70;84.90
24772;DHT22;12870;52.274;9.754;2023-06-14T10:48:43;27.00;83.00
24772;DHT22;12870;52.274;9.754;2023-06-14T10:51:19;27.00;82.00
24772;DHT22;12870;52.274;9.754;2023-06-14T10:53:50;26.90;80.60
24772;DHT22;12870;52.274;9.754;2023-06-14T10:56:33;26.80;80.30
24772;DHT22;12870;52.274;9.754;2023-06-14T10:58:58;26.80;80.60
24772;DHT22;12870;52.274;9.754;2023-06-14T11:01:41;26.80;80.60
24772;DHT22;12870;52.274;9.754;2023-06-14T11:04:12;27.30;83.30
24772;DHT22;12870;52.274;9.754;2023-06-14T11:06:49;27.00;80.20
24772;DHT22;12870;52.274;9.754;2023-06-14T11:12:13;26.60;79.30
24772;DHT22;12870;52.274;9.754;2023-06-14T11:14:40;26.90;82.10
24772;DHT22;12870;52.274;9.754;2023-06-14T11:17:06;26.80;77.40
24772;DHT22;12870;52.274;9.754;2023-06-14T11:19:32;26.80;79.40
24772;DHT22;12870;52.274;9.754;2023-06-14T11:21:59;26.60;80.70
24772;DHT22;12870;52.274;9.754;2023-06-14T11:24:24;26.30;79.70
24772;DHT22;12870;52.274;9.754;2023-06-14T11:26:50;26.20;80.30
24772;DHT22;12870;52.274;9.754;2023-06-14T11:29:16;26.20;79.00
24772;DHT22;12870;52.274;9.754;2023-06-14T11:31:46;26.10;78.90
24772;DHT22;12870;52.274;9.754;2023-06-14T11:34:12;26.10;79.30
24772;DHT22;12870;52.274;9.754;2023-06-14T11:36:38;26.10;78.90
24772;DHT22;12870;52.274;9.754;2023-06-14T11:39:08;26.10;78.40
24772;DHT22;12870;52.274;9.754;2023-06-14T11:41:38;26.20;79.20
24772;DHT22;12870;52.274;9.754;2023-06-14T11:44:05;26.40;80.90
24772;DHT22;12870;52.274;9.754;2023-06-14T11:46:31;26.60;77.70
24772;DHT22;12870;52.274;9.754;2023-06-14T11:48:57;27.30;79.50
24772;DHT22;12870;52.274;9.754;2023-06-14T11:51:23;27.80;74.70
24772;DHT22;12870;52.274;9.754;2023-06-14T11:53:49;27.50;75.30
24772;DHT22;12870;52.274;9.754;2023-06-14T11:56:15;28.00;77.90
24772;DHT22;12870;52.274;9.754;2023-06-14T11:58:43;28.30;73.50
24772;DHT22;12870;52.274;9.754;2023-06-14T12:01:09;28.80;74.70
24772;DHT22;12870;52.274;9.754;2023-06-14T12:03:34;28.60;70.90
24772;DHT22;12870;52.274;9.754;2023-06-14T12:06:08;28.30;73.50
24772;DHT22;12870;52.274;9.754;2023-06-14T12:08:38;27.90;71.90
24772;DHT22;12870;52.274;9.754;2023-06-14T12:11:06;27.60;70.90
24772;DHT22;12870;52.274;9.754;2023-06-14T12:13:34;27.30;71.90
24772;DHT22;12870;52.274;9.754;2023-06-14T12:16:00;26.90;71.20
24772;DHT22;12870;52.274;9.754;2023-06-14T12:18:37;26.70;72.70
24772;DHT22;12870;52.274;9.754;2023-06-14T12:21:04;26.60;74.10
24772;DHT22;12870;52.274;9.754;2023-06-14T12:23:48;27.00;74.30
24772;DHT22;12870;52.274;9.754;2023-06-14T12:26:16;27.20;72.70
24772;DHT22;12870;52.274;9.754;2023-06-14T12:28:44;27.00;71.70
24772;DHT22;12870;52.274;9.754;2023-06-14T12:31:11;27.00;72.50
24772;DHT22;12870;52.274;9.754;2023-06-14T12:33:38;27.10;73.00
24772;DHT22;12870;52.274;9.754;2023-06-14T12:36:05;27.10;74.00
24772;DHT22;12870;52.274;9.754;2023-06-14T12:38:35;27.80;77.80
24772;DHT22;12870;52.274;9.754;2023-06-14T12:41:01;27.90;72.50
24772;DHT22;12870;52.274;9.754;2023-06-14T12:43:27;28.20;74.20
24772;DHT22;12870;52.274;9.754;2023-06-14T12:45:53;28.80;72.10
24772;DHT22;12870;52.274;9.754;2023-06-14T12:48:19;28.60;70.20
24772;DHT22;12870;52.274;9.754;2023-06-14T12:50:45;28.30;69.40
24772;DHT22;12870;52.274;9.754;2023-06-14T12:53:11;27.80;70.50
24772;DHT22;12870;52.274;9.754;2023-06-14T12:55:36;27.50;71.80
24772;DHT22;12870;52.274;9.754;2023-06-14T12:58:02;27.30;70.40
24772;DHT22;12870;52.274;9.754;2023-06-14T13:00:28;27.00;70.90
24772;DHT22;12870;52.274;9.754;2023-06-14T13:02:56;26.80;72.60
24772;DHT22;12870;52.274;9.754;2023-06-14T13:05:22;26.70;75.00
24772;DHT22;12870;52.274;9.754;2023-06-14T13:07:48;26.70;74.60
24772;DHT22;12870;52.274;9.754;2023-06-14T13:10:13;26.80;74.80
24772;DHT22;12870;52.274;9.754;2023-06-14T13:12:39;26.90;73.40
24772;DHT22;12870;52.274;9.754;2023-06-14T13:15:06;27.10;76.60
24772;DHT22;12870;52.274;9.754;2023-06-14T13:17:33;27.80;75.00
24772;DHT22;12870;52.274;9.754;2023-06-14T13:20:07;28.10;73.80
24772;DHT22;12870;52.274;9.754;2023-06-14T13:22:34;28.40;75.80
24772;DHT22;12870;52.274;9.754;2023-06-14T13:24:59;28.60;71.60
24772;DHT22;12870;52.274;9.754;2023-06-14T13:27:26;29.20;69.00
24772;DHT22;12870;52.274;9.754;2023-06-14T13:29:52;29.60;69.60
24772;DHT22;12870;52.274;9.754;2023-06-14T13:32:18;29.80;66.70
24772;DHT22;12870;52.274;9.754;2023-06-14T13:34:44;30.20;67.70
24772;DHT22;12870;52.274;9.754;2023-06-14T13:37:09;29.60;63.20
24772;DHT22;12870;52.274;9.754;2023-06-14T13:39:35;29.30;63.80
24772;DHT22;12870;52.274;9.754;2023-06-14T13:42:03;29.30;67.20
24772;DHT22;12870;52.274;9.754;2023-06-14T13:44:28;29.50;65.40
24772;DHT22;12870;52.274;9.754;2023-06-14T13:46:54;29.50;65.00
24772;DHT22;12870;52.274;9.754;2023-06-14T13:49:20;29.80;64.90
24772;DHT22;12870;52.274;9.754;2023-06-14T13:51:46;29.90;63.40
24772;DHT22;12870;52.274;9.754;2023-06-14T13:54:13;30.40;64.40
24772;DHT22;12870;52.274;9.754;2023-06-14T13:56:40;30.90;61.70
24772;DHT22;12870;52.274;9.754;2023-06-14T13:59:05;30.50;60.40
24772;DHT22;12870;52.274;9.754;2023-06-14T14:01:31;29.80;57.20
24772;DHT22;12870;52.274;9.754;2023-06-14T14:03:57;29.40;58.00
24772;DHT22;12870;52.274;9.754;2023-06-14T14:06:24;28.90;59.80
24772;DHT22;12870;52.274;9.754;2023-06-14T14:08:49;28.40;62.30
24772;DHT22;12870;52.274;9.754;2023-06-14T14:11:15;28.00;61.20
24772;DHT22;12870;52.274;9.754;2023-06-14T14:13:41;27.70;61.70
24772;DHT22;12870;52.274;9.754;2023-06-14T14:16:08;27.40;63.00
24772;DHT22;12870;52.274;9.754;2023-06-14T14:18:33;27.20;63.00
24772;DHT22;12870;52.274;9.754;2023-06-14T14:20:59;27.20;64.00
24772;DHT22;12870;52.274;9.754;2023-06-14T14:23:27;27.20;64.50
24772;DHT22;12870;52.274;9.754;2023-06-14T14:25:53;27.30;65.20
24772;DHT22;12870;52.274;9.754;2023-06-14T14:28:18;27.60;64.40
24772;DHT22;12870;52.274;9.754;2023-06-14T14:30:46;28.30;63.20
24772;DHT22;12870;52.274;9.754;2023-06-14T14:33:13;29.00;63.90
24772;DHT22;12870;52.274;9.754;2023-06-14T14:35:42;29.60;58.50
24772;DHT22;12870;52.274;9.754;2023-06-14T14:38:08;30.00;59.00
24772;DHT22;12870;52.274;9.754;2023-06-14T14:40:34;30.40;58.10
24772;DHT22;12870;52.274;9.754;2023-06-14T14:43:00;30.60;57.00
24772;DHT22;12870;52.274;9.754;2023-06-14T14:45:25;30.60;58.00
24772;DHT22;12870;52.274;9.754;2023-06-14T14:47:51;30.60;56.10
24772;DHT22;12870;52.274;9.754;2023-06-14T14:50:17;30.50;54.60
24772;DHT22;12870;52.274;9.754;2023-06-14T14:52:42;30.40;55.10
24772;DHT22;12870;52.274;9.754;2023-06-14T14:55:08;30.50;55.90
24772;DHT22;12870;52.274;9.754;2023-06-14T14:57:34;30.60;55.80
24772;DHT22;12870;52.274;9.754;2023-06-14T15:00:03;30.70;54.80
24772;DHT22;12870;52.274;9.754;2023-06-14T15:02:29;30.60;53.00
24772;DHT22;12870;52.274;9.754;2023-06-14T15:04:54;30.20;53.10
24772;DHT22;12870;52.274;9.754;2023-06-14T15:07:22;29.90;53.30
24772;DHT22;12870;52.274;9.754;2023-06-14T15:09:48;29.30;54.20
24772;DHT22;12870;52.274;9.754;2023-06-14T15:12:16;29.00;55.80
24772;DHT22;12870;52.274;9.754;2023-06-14T15:14:42;28.60;55.50
24772;DHT22;12870;52.274;9.754;2023-06-14T15:17:07;28.30;56.00
24772;DHT22;12870;52.274;9.754;2023-06-14T15:19:33;27.70;55.60
24772;DHT22;12870;52.274;9.754;2023-06-14T15:21:59;27.40;56.70
24772;DHT22;12870;52.274;9.754;2023-06-14T15:24:25;27.20;57.60
24772;DHT22;12870;52.274;9.754;2023-06-14T15:26:50;26.80;57.70
24772;DHT22;12870;52.274;9.754;2023-06-14T15:29:16;26.50;57.50
24772;DHT22;12870;52.274;9.754;2023-06-14T15:31:42;26.30;58.60
24772;DHT22;12870;52.274;9.754;2023-06-14T15:34:08;26.20;59.60
24772;DHT22;12870;52.274;9.754;2023-06-14T15:36:33;26.00;60.00
24772;DHT22;12870;52.274;9.754;2023-06-14T15:38:59;26.00;60.40
24772;DHT22;12870;52.274;9.754;2023-06-14T15:41:25;26.00;61.00
24772;DHT22;12870;52.274;9.754;2023-06-14T15:43:50;26.10;61.60